• Join FlightAware (Why Join?)
  • Login
  • US Flag 
07:55PM EDT


 

Airport Tracker/Info


-or-


 

Live Flight TrackerFlight Track Log ✈ N498QS ✈ 02-Jun-2013 ✈ KTTN - EGKB / BQH

Flight Track Log - Related Links

Times and Time Zones

All times are in EDT time to prevent confusion due to time zone crossing. See the N498QS flight status page for this flight to view local times or setup timezone preferences in your user account.

Time Position Orientation Groundspeed Altitude Reporting Facility
EDT Latitude Longitude Course Direction KTS MPH feet Rate Location/Type
12:12AM 40.1500 -74.7833 171° South 264 304 5,400  Level Philadelphia TRACON
12:13AM 40.0419 -74.7619 171° South 295 339 8,700 1,440 Climbing New York Center
12:14AM 39.9611 -74.7492 173° South 295 339 9,000 720 Climbing New York Center
12:15AM 39.9050 -74.6811 137° Southeast 271 312 10,200 1,020 Climbing New York Center
12:16AM 39.9044 -74.5647 90° East 261 300 11,100 1,380 Climbing New York Center
12:17AM 39.9583 -74.4483 59° Northeast 288 331 13,000 1,800 Climbing New York Center
12:18AM 40.0136 -74.3431 56° Northeast 347 399 14,700 1,860 Climbing New York Center
12:19AM 40.0800 -74.2133 56° Northeast 382 440 16,800 1,740 Climbing New York Center
12:22AM 40.2211 -73.9239 57° Northeast 408 470 20,500 1,440 Climbing Boston Center
12:23AM 40.2853 -73.7947 57° Northeast 413 475 21,900 1,260 Climbing Boston Center
12:24AM 40.3539 -73.6436 59° Northeast 413 475 23,400 1,380 Climbing Boston Center
12:25AM 40.4281 -73.5142 53° Northeast 429 494 24,700 1,200 Climbing Boston Center
12:26AM 40.4958 -73.3817 56° Northeast 435 501 25,900 1,080 Climbing Boston Center
12:27AM 40.5678 -73.2461 55° Northeast 441 507 26,900 1,080 Climbing Boston Center
12:28AM 40.6417 -73.1047 55° Northeast 447 514 28,100 1,320 Climbing Boston Center
12:29AM 40.7111 -72.9686 56° Northeast 447 514 29,600 1,800 Climbing Boston Center
12:30AM 40.7908 -72.8294 53° Northeast 442 509 31,700 1,800 Climbing Boston Center
12:31AM 40.8600 -72.6981 55° Northeast 442 509 33,300 1,500 Climbing Boston Center
12:32AM 40.9289 -72.5636 56° Northeast 437 503 34,700 1,440 Climbing Boston Center
12:33AM 40.9978 -72.4347 55° Northeast 426 490 36,200 1,260 Climbing Boston Center
12:34AM 41.0625 -72.3025 57° Northeast 426 490 37,300 1,200 Climbing Boston Center
12:35AM 41.1308 -72.1756 54° Northeast 419 482 38,600 1,080 Climbing Boston Center
12:36AM 41.1950 -72.0456 57° Northeast 419 482 39,500 840 Climbing Boston Center
12:37AM 41.2614 -71.9181 55° Northeast 419 482 40,300 720 Climbing Boston Center
12:38AM 41.3272 -71.7878 56° Northeast 422 486 41,000 300 Climbing Boston Center
12:39AM 41.3953 -71.6569 55° Northeast 417 480 41,000  Level Boston Center
12:40AM 41.4569 -71.5428 54° Northeast 422 486 41,000  Level Boston Center
12:41AM 41.5244 -71.4058 57° Northeast 422 486 41,000  Level Boston Center
12:42AM 41.5900 -71.2744 56° Northeast 422 486 41,000  Level Boston Center
12:43AM 41.6572 -71.1425 56° Northeast 422 486 41,000  Level Boston Center
12:44AM 41.7244 -71.0019 57° Northeast 428 493 41,000  Level Boston Center
12:45AM 41.7914 -70.8669 56° Northeast 428 493 41,000  Level Boston Center
12:46AM 41.8619 -70.7147 58° Northeast 433 498 41,000  Level Boston Center
12:47AM 41.9286 -70.5761 57° Northeast 433 498 41,000  Level Boston Center
12:48AM 41.9911 -70.4514 56° Northeast 438 504 41,000  Level Boston Center
12:49AM 42.0553 -70.3150 58° Northeast 438 504 41,000  Level Boston Center
12:50AM 42.1175 -70.1814 58° Northeast 438 504 41,000  Level Boston Center
12:51AM 42.2017 -70.0297 53° Northeast 438 504 41,000  Level Boston Center
12:52AM 42.2656 -69.8925 58° Northeast 443 510 41,000  Level Boston Center
12:53AM 42.3208 -69.7667 59° Northeast 436 502 41,000  Level Boston Center
12:54AM 42.3844 -69.6292 58° Northeast 436 502 41,000  Level Boston Center
12:55AM 42.4497 -69.4911 57° Northeast 436 502 41,000  Level Boston Center
12:56AM 42.5147 -69.3472 58° Northeast 436 502 41,000  Level Boston Center
12:57AM 42.5917 -69.1908 56° Northeast 442 509 41,000  Level Boston Center
12:58AM 42.6561 -69.0492 58° Northeast 442 509 41,000  Level Boston Center
12:59AM 42.7208 -68.9100 58° Northeast 447 514 41,000  Level Boston Center
01:00AM 42.7872 -68.7675 58° Northeast 447 514 41,000  Level Boston Center
01:01AM 42.8375 -68.6511 59° Northeast 447 514 41,000  Level Boston Center
01:01AM 42.8500 -68.5833 76° East 440 506 41,000  Level Moncton Center
01:02AM 42.9075 -68.5050 45° Northeast 440 506 41,000  Level Boston Center
01:03AM 42.9714 -68.3619 59° Northeast 440 506 41,000  Level Boston Center
01:03AM 42.9833 -68.3000 75° East 440 506 41,000  Level Moncton Center
01:04AM 43.0500 -68.1667 56° Northeast 440 506 41,000  Level Moncton Center
01:05AM 43.1025 -68.0744 52° Northeast 445 512 41,000  Level Boston Center
01:06AM 43.1678 -67.9300 58° Northeast 445 512 41,000  Level Boston Center
01:07AM 43.2308 -67.7858 59° Northeast 445 512 41,000  Level Boston Center
01:07AM 43.2333 -67.7167 87° East 440 506 41,000  Level Moncton Center
01:08AM 43.3000 -67.5833 55° Northeast 440 506 41,000  Level Moncton Center
01:09AM 43.3833 -67.4000 58° Northeast 440 506 41,000  Level Moncton Center
01:10AM 43.4333 -67.2667 63° Northeast 450 518 41,000  Level Moncton Center
01:11AM 43.5000 -67.1167 58° Northeast 450 518 41,000  Level Moncton Center
01:12AM 43.5667 -66.9833 55° Northeast 450 518 41,000  Level Moncton Center
01:13AM 43.6333 -66.8167 61° Northeast 450 518 41,000  Level Moncton Center
01:14AM 43.7000 -66.6833 55° Northeast 450 518 41,000  Level Moncton Center
01:15AM 43.7667 -66.5333 58° Northeast 450 518 41,000  Level Moncton Center
01:16AM 43.8167 -66.3833 65° Northeast 450 518 41,000  Level Moncton Center
01:17AM 43.8833 -66.2333 58° Northeast 450 518 41,000  Level Moncton Center
01:18AM 43.9500 -66.0667 61° Northeast 450 518 41,000  Level Moncton Center
01:19AM 44.0167 -65.9333 55° Northeast 450 518 41,000  Level Moncton Center
01:20AM 44.0833 -65.7667 61° Northeast 460 529 41,000  Level Moncton Center
01:21AM 44.1333 -65.6333 62° Northeast 450 518 41,000  Level Moncton Center
01:22AM 44.2000 -65.4667 61° Northeast 450 518 41,000  Level Moncton Center
01:23AM 44.2667 -65.3000 61° Northeast 450 518 41,000  Level Moncton Center
01:24AM 44.3167 -65.1667 62° Northeast 450 518 41,000  Level Moncton Center
01:25AM 44.3833 -65.0000 61° Northeast 460 529 41,000  Level Moncton Center
01:26AM 44.4500 -64.8500 58° Northeast 460 529 41,000  Level Moncton Center
01:27AM 44.5000 -64.7000 65° Northeast 460 529 41,000  Level Moncton Center
01:28AM 44.5667 -64.5333 61° Northeast 460 529 41,000  Level Moncton Center
01:29AM 44.6333 -64.3667 61° Northeast 460 529 41,000  Level Moncton Center
01:30AM 44.7000 -64.2333 55° Northeast 460 529 41,000  Level Moncton Center
01:31AM 44.7667 -64.0500 63° Northeast 460 529 41,000  Level Moncton Center
01:32AM 44.8167 -63.9000 65° Northeast 470 541 41,000  Level Moncton Center
01:33AM 44.8833 -63.7333 61° Northeast 470 541 41,000  Level Moncton Center
01:34AM 44.9500 -63.5667 60° Northeast 470 541 41,000  Level Moncton Center
01:35AM 45.0167 -63.4000 60° Northeast 490 564 41,000  Level Moncton Center
01:36AM 45.0833 -63.2333 60° Northeast 470 541 41,000  Level Moncton Center
01:37AM 45.1333 -63.0667 67° East 470 541 41,000  Level Moncton Center
01:38AM 45.2000 -62.9333 55° Northeast 470 541 41,000  Level Moncton Center
01:39AM 45.2667 -62.7333 65° Northeast 480 552 41,000  Level Moncton Center
01:40AM 45.3333 -62.5667 60° Northeast 480 552 41,000  Level Moncton Center
01:41AM 45.3833 -62.4000 67° East 480 552 41,000  Level Moncton Center
01:42AM 45.4500 -62.2333 60° Northeast 480 552 41,000  Level Moncton Center
01:43AM 45.5167 -62.0500 63° Northeast 480 552 41,000  Level Moncton Center
01:44AM 45.5667 -61.8833 67° East 480 552 41,000  Level Moncton Center
01:45AM 45.6333 -61.7333 58° Northeast 470 541 41,000  Level Moncton Center
01:46AM 45.6833 -61.5500 69° East 480 552 41,000  Level Moncton Center
01:47AM 45.7500 -61.4000 57° Northeast 480 552 41,000  Level Moncton Center
01:48AM 45.8167 -61.2000 64° Northeast 480 552 41,000  Level Moncton Center
01:49AM 45.8667 -61.0500 64° Northeast 480 552 41,000  Level Moncton Center
01:50AM 45.9333 -60.8667 62° Northeast 480 552 41,000  Level Moncton Center
01:51AM 45.9833 -60.6833 69° East 480 552 41,000  Level Moncton Center
01:52AM 46.0500 -60.5167 60° Northeast 490 564 41,000  Level Moncton Center
01:53AM 46.1000 -60.3333 68° East 500 575 41,000  Level Moncton Center
01:54AM 46.1833 -60.1667 54° Northeast 500 575 41,000  Level Moncton Center
01:55AM 46.2167 -60.0000 74° East 490 564 41,000  Level Moncton Center
01:56AM 46.3000 -59.8000 59° Northeast 490 564 41,000  Level Moncton Center
01:57AM 46.3500 -59.6167 68° East 490 564 41,000  Level Moncton Center
01:58AM 46.4000 -59.4833 61° Northeast 500 575 41,000  Level Gander Center
01:59AM 46.4500 -59.3167 66° East 500 575 41,000  Level Gander Center
02:00AM 46.5000 -59.1167 70° East 500 575 41,000  Level Gander Center
02:01AM 46.5667 -58.9500 60° Northeast 500 575 41,000  Level Gander Center
02:02AM 46.6333 -58.7833 60° Northeast 490 564 41,000  Level Gander Center
02:03AM 46.6833 -58.5833 70° East 490 564 41,000  Level Gander Center
02:03AM 46.7167 -58.5333 46° Northeast 490 564 41,000  Level Moncton Center
02:04AM 46.7667 -58.3333 70° East 500 575 41,000  Level Moncton Center
02:05AM 46.8167 -58.1833 64° Northeast 490 564 41,000  Level Moncton Center
02:06AM 46.8833 -57.9833 64° Northeast 500 575 41,000  Level Moncton Center
02:07AM 46.9167 -57.8667 67° East 500 575 41,000  Level Gander Center
02:08AM 46.9667 -57.6833 68° East 510 587 41,000  Level Gander Center
02:08AM 47.0000 -57.6167 54° Northeast 500 575 41,000  Level Moncton Center
02:09AM 47.0500 -57.4167 70° East 510 587 41,000  Level Moncton Center
02:10AM 47.1000 -57.2333 68° East 510 587 41,000  Level Moncton Center
02:11AM 47.1500 -57.0833 64° Northeast 510 587 41,000  Level Gander Center
02:12AM 47.2000 -56.9000 68° East 500 575 41,000  Level Gander Center
02:13AM 47.2500 -56.7000 70° East 510 587 41,000  Level Gander Center
02:14AM 47.3167 -56.5333 59° Northeast 510 587 41,000  Level Gander Center
02:14AM 47.3167 -56.4667 90° East 510 587 41,000  Level Moncton Center
02:15AM 47.3667 -56.3167 64° Northeast 510 587 41,000  Level Gander Center
02:15AM 47.3833 -56.2500 70° East 510 587 41,000  Level Moncton Center
02:16AM 47.4500 -56.0667 62° Northeast 510 587 41,000  Level Moncton Center
02:17AM 47.5000 -55.8833 68° East 510 587 41,000  Level Moncton Center
02:18AM 47.5500 -55.6833 70° East 510 587 41,000  Level Moncton Center
02:19AM 47.5833 -55.5667 67° East 510 587 41,000  Level Gander Center
02:20AM 47.6333 -55.3500 71° East 510 587 41,000  Level Gander Center
02:20AM 47.6500 -55.2833 70° East 500 575 41,000  Level Moncton Center
02:21AM 47.7167 -55.0833 64° Northeast 510 587 41,000  Level Moncton Center
02:22AM 47.7500 -54.9667 67° East 510 587 41,000  Level Gander Center
02:23AM 47.8167 -54.7833 62° Northeast 520 598 41,000  Level Gander Center
02:24AM 47.8667 -54.5833 69° East 510 587 41,000  Level Gander Center
02:24AM 47.8667 -54.5000 90° East 510 587 41,000  Level Moncton Center
02:25AM 47.9167 -54.3667 61° Northeast 510 587 41,000  Level Gander Center
02:26AM 47.9667 -54.1667 69° East 510 587 41,000  Level Gander Center
02:27AM 48.0167 -53.9833 68° East 510 587 41,000  Level Gander Center
02:28AM 48.0667 -53.7667 71° East 510 587 41,000  Level Gander Center
02:29AM 48.1167 -53.5833 68° East 510 587 41,000  Level Gander Center
02:30AM 48.1333 -53.6000 69° East 553 636 41,000  Level ETMS Enhanced Traffic Management System
02:30AM 48.1667 -53.3833 69° East 510 587 41,000  Level Gander Center
02:30AM 48.1333 -53.6000 69° East 553 636 41,000  Level ETMS Enhanced Traffic Management System
02:31AM 48.2167 -53.2000 69° East 500 575 41,000  Level Gander Center
02:32AM 48.2833 -52.9833 65° Northeast 500 575 41,000  Level Gander Center
02:33AM 48.3167 -52.8000 75° East 500 575 41,000  Level Gander Center
02:33AM 48.3333 -52.7333 69° East 500 575 41,000  Level Moncton Center
02:34AM 48.3833 -52.5500 68° East 500 575 41,000  Level Moncton Center
02:35AM 48.4000 -52.4333 78° East 500 575 41,000  Level Gander Center
02:35AM 48.4333 -52.3500 59° Northeast 500 575 41,000  Level Moncton Center
02:36AM 48.4667 -52.1500 76° East 500 575 41,000  Level Moncton Center
02:37AM 48.5000 -52.0333 67° East 500 575 41,000  Level Gander Center
02:38AM 48.5500 -51.8500 68° East 500 575 41,000  Level Gander Center
02:38AM 48.5667 -51.7667 73° East 500 575 41,000  Level Moncton Center
02:39AM 48.6167 -51.5500 71° East 500 575 41,000  Level Moncton Center
02:40AM 48.6333 -51.4500 76° East 500 575 41,000  Level Gander Center
02:41AM 48.6833 -51.2667 67° East 500 575 41,000  Level Gander Center
02:42AM 48.7333 -51.0500 71° East 500 575 41,000  Level Gander Center
02:42AM 48.7667 -50.9667 59° Northeast 500 575 41,000  Level Moncton Center
02:43AM 48.7833 -50.8167 80° East 510 587 41,000  Level Gander Center
02:44AM 48.8333 -50.6167 69° East 510 587 41,000  Level Gander Center
02:44AM 48.8500 -50.5667 63° Northeast 510 587 41,000  Level Moncton Center
02:45AM 48.8833 -50.4333 69° East 510 587 41,000  Level Gander Center
02:46AM 48.9333 -50.2167 71° East 510 587 41,000  Level Gander Center
02:47AM 48.9667 -50.0333 74° East 510 587 41,000  Level Gander Center
02:48AM 49.0000 -50.0000 69° East 504 580 41,000  Level ETMS Enhanced Traffic Management System
02:48AM 49.0000 -49.8333 69° East 510 587 41,000  Level Gander Center
02:49AM 49.0667 -49.6167 65° Northeast 510 587 41,000  Level Gander Center
02:50AM 49.1000 -49.4333 74° East 510 587 41,000  Level Gander Center
02:52AM 49.1866 -49.1284 66° East  Level FlightAware Approximate
02:59AM 49.5086 -47.8294 70° East  Level FlightAware Approximate
03:00AM 49.5517 -47.6417 70° East  Level FlightAware Approximate
03:01AM 49.5946 -47.4538 71° East  Level FlightAware Approximate
03:02AM 49.6371 -47.2655 71° East  Level FlightAware Approximate
03:03AM 49.6793 -47.0769 71° East  Level FlightAware Approximate
03:04AM 49.7212 -46.8879 71° East  Level FlightAware Approximate
03:05AM 49.7629 -46.6987 71° East  Level FlightAware Approximate
03:06AM 49.8041 -46.5090 71° East  Level FlightAware Approximate
03:07AM 49.8451 -46.3191 71° East  Level FlightAware Approximate
03:08AM 49.8858 -46.1289 72° East  Level FlightAware Approximate
03:09AM 49.9262 -45.9383 72° East  Level FlightAware Approximate
03:10AM 49.9663 -45.7475 72° East  Level FlightAware Approximate
03:11AM 50.0060 -45.5563 72° East  Level FlightAware Approximate
03:12AM 50.0454 -45.3647 72° East  Level FlightAware Approximate
03:13AM 50.0845 -45.1729 72° East  Level FlightAware Approximate
03:14AM 50.1233 -44.9808 72° East  Level FlightAware Approximate
03:15AM 50.1618 -44.7883 73° East  Level FlightAware Approximate
03:16AM 50.2000 -44.5956 73° East  Level FlightAware Approximate
03:17AM 50.2378 -44.4025 73° East  Level FlightAware Approximate
03:18AM 50.2753 -44.2092 73° East  Level FlightAware Approximate
03:19AM 50.3125 -44.0155 73° East  Level FlightAware Approximate
03:20AM 50.3494 -43.8215 73° East  Level FlightAware Approximate
03:21AM 50.3860 -43.6273 73° East  Level FlightAware Approximate
03:22AM 50.4222 -43.4327 74° East  Level FlightAware Approximate
03:23AM 50.4581 -43.2378 74° East  Level FlightAware Approximate
03:24AM 50.4937 -43.0426 74° East  Level FlightAware Approximate
03:25AM 50.5289 -42.8472 74° East  Level FlightAware Approximate
03:26AM 50.5639 -42.6514 74° East  Level FlightAware Approximate
03:27AM 50.5984 -42.4554 74° East  Level FlightAware Approximate
03:28AM 50.6327 -42.2591 75° East  Level FlightAware Approximate
03:29AM 50.6667 -42.0625 75° East  Level FlightAware Approximate
03:30AM 50.7003 -41.8656 75° East  Level FlightAware Approximate
03:31AM 50.7335 -41.6684 75° East  Level FlightAware Approximate
03:32AM 50.7665 -41.4710 75° East  Level FlightAware Approximate
03:33AM 50.7991 -41.2732 75° East  Level FlightAware Approximate
03:34AM 50.8313 -41.0752 75° East  Level FlightAware Approximate
03:35AM 50.8633 -40.8769 76° East  Level FlightAware Approximate
03:36AM 50.8949 -40.6784 76° East  Level FlightAware Approximate
03:37AM 50.9262 -40.4796 76° East  Level FlightAware Approximate
03:37AM 51.0000 -40.0000 77° East 503 579 41,000  Level ETMS Enhanced Traffic Management System
03:38AM 50.9571 -40.2805 76° East  Level FlightAware Approximate
03:39AM 50.9877 -40.0812 76° East  Level FlightAware Approximate
03:40AM 51.0170 -39.8812 77° East  Level FlightAware Approximate
03:41AM 51.0453 -39.6808 77° East  Level FlightAware Approximate
03:42AM 51.0732 -39.4801 77° East  Level FlightAware Approximate
03:43AM 51.2394 -38.2570 78° East 503 579 41,000  Level FlightAware Transoceanic
03:44AM 51.2675 -38.0378 79° East 503 579 41,000  Level FlightAware Transoceanic
03:45AM 51.2952 -37.8185 79° East 503 579 41,000  Level FlightAware Transoceanic
03:46AM 51.3225 -37.5988 79° East 503 579 41,000  Level FlightAware Transoceanic
03:47AM 51.3493 -37.3789 79° East 503 579 41,000  Level FlightAware Transoceanic
03:48AM 51.3758 -37.1587 79° East 503 579 41,000  Level FlightAware Transoceanic
03:49AM 51.4018 -36.9383 79° East 503 579 41,000  Level FlightAware Transoceanic
03:50AM 51.4274 -36.7176 80° East 503 579 41,000  Level FlightAware Transoceanic
03:51AM 51.4527 -36.4967 80° East 503 579 41,000  Level FlightAware Transoceanic
03:52AM 51.4775 -36.2755 80° East 503 579 41,000  Level FlightAware Transoceanic
03:53AM 51.5018 -36.0541 80° East 503 579 41,000  Level FlightAware Transoceanic
03:54AM 51.5258 -35.8325 80° East 503 579 41,000  Level FlightAware Transoceanic
03:55AM 51.5493 -35.6106 80° East 503 579 41,000  Level FlightAware Transoceanic
03:56AM 51.5725 -35.3885 81° East 503 579 41,000  Level FlightAware Transoceanic
03:57AM 51.5952 -35.1662 81° East 503 579 41,000  Level FlightAware Transoceanic
03:58AM 51.6175 -34.9437 81° East 503 579 41,000  Level FlightAware Transoceanic
03:59AM 51.6393 -34.7210 81° East 503 579 41,000  Level FlightAware Transoceanic
04:00AM 51.6608 -34.4980 81° East 503 579 41,000  Level FlightAware Transoceanic
04:01AM 51.6818 -34.2748 81° East 503 579 41,000  Level FlightAware Transoceanic
04:02AM 51.7024 -34.0514 82° East 503 579 41,000  Level FlightAware Transoceanic
04:03AM 51.7225 -33.8278 82° East 503 579 41,000  Level FlightAware Transoceanic
04:04AM 51.7423 -33.6041 82° East 503 579 41,000  Level FlightAware Transoceanic
04:05AM 51.7616 -33.3801 82° East 503 579 41,000  Level FlightAware Transoceanic
04:06AM 51.7805 -33.1559 82° East 503 579 41,000  Level FlightAware Transoceanic
04:07AM 51.7990 -32.9316 83° East 503 579 41,000  Level FlightAware Transoceanic
04:08AM 51.8170 -32.7071 83° East 503 579 41,000  Level FlightAware Transoceanic
04:09AM 51.8346 -32.4823 83° East 503 579 41,000  Level FlightAware Transoceanic
04:10AM 51.8518 -32.2575 83° East 503 579 41,000  Level FlightAware Transoceanic
04:11AM 51.8686 -32.0324 83° East 503 579 41,000  Level FlightAware Transoceanic
04:12AM 51.8849 -31.8072 83° East 503 579 41,000  Level FlightAware Transoceanic
04:13AM 51.9008 -31.5818 84° East 503 579 41,000  Level FlightAware Transoceanic
04:14AM 51.9163 -31.3563 84° East 503 579 41,000  Level FlightAware Transoceanic
04:15AM 51.9313 -31.1306 84° East 503 579 41,000  Level FlightAware Transoceanic
04:16AM 51.9459 -30.9048 84° East 503 579 41,000  Level FlightAware Transoceanic
04:17AM 51.9601 -30.6788 84° East 503 579 41,000  Level FlightAware Transoceanic
04:18AM 51.9738 -30.4527 84° East 503 579 41,000  Level FlightAware Transoceanic
04:19AM 51.9871 -30.2264 85° East 503 579 41,000  Level FlightAware Transoceanic
04:20AM 51.9990 -30.0175 85° East  Level FlightAware Approximate
04:21AM 52.0106 -29.8084 85° East  Level FlightAware Approximate
04:21AM 52.0000 -30.0000 77° East 504 580 41,000  Level ETMS Enhanced Traffic Management System
04:22AM 52.0246 -29.8298 77° East  Level FlightAware Approximate
04:23AM 52.0538 -29.6252 77° East  Level FlightAware Approximate
04:24AM 52.0826 -29.4203 77° East  Level FlightAware Approximate
04:25AM 52.1111 -29.2152 77° East  Level FlightAware Approximate
04:26AM 52.1393 -29.0098 77° East  Level FlightAware Approximate
04:27AM 52.2150 -28.4422 78° East 504 580 41,000  Level FlightAware Transoceanic
04:28AM 52.2440 -28.2184 78° East 504 580 41,000  Level FlightAware Transoceanic
04:29AM 52.2726 -27.9944 78° East 504 580 41,000  Level FlightAware Transoceanic
04:30AM 52.3008 -27.7700 78° East 504 580 41,000  Level FlightAware Transoceanic
04:31AM 52.3285 -27.5454 79° East 504 580 41,000  Level FlightAware Transoceanic
04:32AM 52.3558 -27.3205 79° East 504 580 41,000  Level FlightAware Transoceanic
04:33AM 52.3827 -27.0954 79° East 504 580 41,000  Level FlightAware Transoceanic
04:34AM 52.4092 -26.8699 79° East 504 580 41,000  Level FlightAware Transoceanic
04:35AM 52.4352 -26.6442 79° East 504 580 41,000  Level FlightAware Transoceanic
04:36AM 52.4609 -26.4182 80° East 504 580 41,000  Level FlightAware Transoceanic
04:37AM 52.4860 -26.1920 80° East 504 580 41,000  Level FlightAware Transoceanic
04:38AM 52.5108 -25.9655 80° East 504 580 41,000  Level FlightAware Transoceanic
04:39AM 52.5351 -25.7387 80° East 504 580 41,000  Level FlightAware Transoceanic
04:40AM 52.5590 -25.5117 80° East 504 580 41,000  Level FlightAware Transoceanic
04:41AM 52.5824 -25.2845 80° East 504 580 41,000  Level FlightAware Transoceanic
04:42AM 52.6054 -25.0570 81° East 504 580 41,000  Level FlightAware Transoceanic
04:43AM 52.6280 -24.8293 81° East 504 580 41,000  Level FlightAware Transoceanic
04:44AM 52.6502 -24.6013 81° East 504 580 41,000  Level FlightAware Transoceanic
04:45AM 52.6718 -24.3732 81° East 504 580 41,000  Level FlightAware Transoceanic
04:46AM 52.6931 -24.1448 81° East 504 580 41,000  Level FlightAware Transoceanic
04:47AM 52.7139 -23.9161 82° East 504 580 41,000  Level FlightAware Transoceanic
04:48AM 52.7343 -23.6873 82° East 504 580 41,000  Level FlightAware Transoceanic
04:49AM 52.7542 -23.4582 82° East 504 580 41,000  Level FlightAware Transoceanic
04:50AM 52.7738 -23.2290 82° East 504 580 41,000  Level FlightAware Transoceanic
04:51AM 52.7928 -22.9995 82° East 504 580 41,000  Level FlightAware Transoceanic
04:52AM 52.8114 -22.7698 82° East 504 580 41,000  Level FlightAware Transoceanic
04:53AM 52.8296 -22.5400 83° East 504 580 41,000  Level FlightAware Transoceanic
04:54AM 52.8473 -22.3099 83° East 504 580 41,000  Level FlightAware Transoceanic
04:55AM 52.8646 -22.0797 83° East 504 580 41,000  Level FlightAware Transoceanic
04:56AM 52.8814 -21.8493 83° East 504 580 41,000  Level FlightAware Transoceanic
04:57AM 52.8978 -21.6187 83° East 504 580 41,000  Level FlightAware Transoceanic
04:58AM 52.9138 -21.3879 84° East 504 580 41,000  Level FlightAware Transoceanic
04:59AM 52.9293 -21.1570 84° East 504 580 41,000  Level FlightAware Transoceanic
05:00AM 52.9443 -20.9259 84° East 504 580 41,000  Level FlightAware Transoceanic
05:01AM 52.9589 -20.6947 84° East 504 580 41,000  Level FlightAware Transoceanic
05:02AM 52.9730 -20.4632 84° East 504 580 41,000  Level FlightAware Transoceanic
05:03AM 52.9868 -20.2317 84° East 504 580 41,000  Level FlightAware Transoceanic
05:04AM 52.9990 -20.0180 84° East  Level FlightAware Approximate
05:05AM 53.0108 -19.8042 85° East  Level FlightAware Approximate
05:06AM 52.9995 -19.8215 90° East  Level FlightAware Approximate
05:07AM 52.9984 -19.6068 90° East  Level FlightAware Approximate
05:08AM 52.9970 -19.3922 91° East  Level FlightAware Approximate
05:09AM 52.9953 -19.1775 91° East  Level FlightAware Approximate
05:10AM 52.9931 -18.9629 91° East  Level FlightAware Approximate
05:11AM 52.9905 -18.7483 91° East  Level FlightAware Approximate
05:12AM 52.9876 -18.5338 91° East  Level FlightAware Approximate
05:13AM 52.9843 -18.3192 91° East  Level FlightAware Approximate
05:14AM 52.9805 -18.1047 92° East  Level FlightAware Approximate
05:15AM 52.9764 -17.8902 92° East  Level FlightAware Approximate
05:16AM 52.9720 -17.6758 92° East  Level FlightAware Approximate
05:17AM 52.9671 -17.4615 92° East  Level FlightAware Approximate
05:18AM 52.9618 -17.2471 92° East  Level FlightAware Approximate
05:19AM 52.9562 -17.0329 92° East  Level FlightAware Approximate
05:20AM 52.9501 -16.8186 93° East  Level FlightAware Approximate
05:21AM 52.9437 -16.6045 93° East  Level FlightAware Approximate
05:22AM 52.9369 -16.3904 93° East  Level FlightAware Approximate
05:23AM 52.9297 -16.1764 93° East  Level FlightAware Approximate
05:24AM 52.9222 -15.9624 93° East  Level FlightAware Approximate
05:25AM 52.9142 -15.7486 93° East  Level FlightAware Approximate
05:26AM 52.9059 -15.5348 94° East  Level FlightAware Approximate
05:27AM 52.8972 -15.3211 94° East  Level FlightAware Approximate
05:28AM 52.8881 -15.1075 94° East  Level FlightAware Approximate
05:29AM 52.8790 -14.8939 94° East  Level FlightAware Approximate
05:30AM 52.8699 -14.6804 94° East  Level FlightAware Approximate
05:31AM 52.8605 -14.4669 94° East  Level FlightAware Approximate
05:32AM 52.8506 -14.2536 94° East  Level FlightAware Approximate
05:33AM 52.8404 -14.0403 94° East  Level FlightAware Approximate
05:34AM 52.8298 -13.8272 95° East  Level FlightAware Approximate
05:35AM 52.8188 -13.6142 95° East  Level FlightAware Approximate
05:36AM 52.8075 -13.4012 95° East  Level FlightAware Approximate
05:37AM 52.7957 -13.1884 95° East  Level FlightAware Approximate
05:38AM 52.7836 -12.9757 95° East  Level FlightAware Approximate
05:39AM 52.7711 -12.7631 95° East  Level FlightAware Approximate
05:40AM 52.7582 -12.5507 96° East  Level FlightAware Approximate
05:41AM 52.7450 -12.3383 96° East  Level FlightAware Approximate
05:42AM 52.7313 -12.1261 96° East  Level FlightAware Approximate
05:43AM 52.7173 -11.9141 96° East  Level FlightAware Approximate
05:44AM 52.7029 -11.7022 96° East  Level FlightAware Approximate
05:45AM 52.6882 -11.4904 96° East  Level FlightAware Approximate
05:46AM 52.6730 -11.2787 97° East  Level FlightAware Approximate
05:47AM 52.6575 -11.0672 97° East  Level FlightAware Approximate
05:48AM 52.6416 -10.8559 97° East  Level FlightAware Approximate
05:49AM 52.6253 -10.6447 97° East  Level FlightAware Approximate
05:50AM 52.6087 -10.4337 97° East  Level FlightAware Approximate
05:51AM 52.5916 -10.2228 97° East  Level FlightAware Approximate
05:52AM 52.5742 -10.0121 98° East  Level FlightAware Approximate
05:53AM 52.5565 -9.8016 98° East  Level FlightAware Approximate
05:54AM 52.5383 -9.5913 98° East  Level FlightAware Approximate
05:55AM 52.5198 -9.3811 98° East  Level FlightAware Approximate
05:56AM 52.5009 -9.1711 98° East  Level FlightAware Approximate
05:57AM 52.4817 -8.9613 98° East  Level FlightAware Approximate
05:58AM 52.4620 -8.7516 99° East  Level FlightAware Approximate
05:59AM 52.4420 -8.5422 99° East  Level FlightAware Approximate
06:00AM 52.4216 -8.3329 99° East  Level FlightAware Approximate
06:01AM 52.4009 -8.1239 99° East  Level FlightAware Approximate
06:02AM 52.3798 -7.9150 99° East  Level FlightAware Approximate
06:03AM 52.3583 -7.7064 99° East  Level FlightAware Approximate
06:04AM 52.3365 -7.4979 100° East  Level FlightAware Approximate
06:05AM 52.3143 -7.2897 100° East  Level FlightAware Approximate
06:06AM 52.2917 -7.0816 100° East  Level FlightAware Approximate
06:07AM 52.2687 -6.8738 100° East  Level FlightAware Approximate
06:08AM 52.2454 -6.6662 100° East  Level FlightAware Approximate
06:09AM 52.2217 -6.4588 100° East  Level FlightAware Approximate
06:10AM 52.1977 -6.2517 101° East  Level FlightAware Approximate
06:11AM 52.1733 -6.0448 101° East  Level FlightAware Approximate
06:12AM 52.1485 -5.8381 101° East  Level FlightAware Approximate
06:13AM 52.1227 -5.6318 101° East  Level FlightAware Approximate
06:14AM 52.0965 -5.4258 102° East  Level FlightAware Approximate
06:15AM 52.0700 -5.2200 102° East  Level FlightAware Approximate
06:16AM 52.0432 -5.0145 102° East  Level FlightAware Approximate
06:17AM 52.0159 -4.8092 102° East  Level FlightAware Approximate
06:18AM 51.9883 -4.6042 102° East  Level FlightAware Approximate
06:19AM 51.9604 -4.3994 102° East  Level FlightAware Approximate
06:20AM 51.9321 -4.1949 103° East  Level FlightAware Approximate
06:21AM 51.9034 -3.9907 103° East  Level FlightAware Approximate
06:22AM 51.8687 -3.7898 102° East  Level FlightAware Approximate
06:23AM 51.8394 -3.5861 105° East  Level FlightAware Approximate
06:24AM 51.8058 -3.3843 105° East  Level FlightAware Approximate
06:25AM 51.7760 -3.1811 103° East  Level FlightAware Approximate
06:26AM 51.7475 -2.9775 100° East  Level FlightAware Approximate
06:27AM 51.7206 -2.7736 105° East  Level FlightAware Approximate
06:28AM 51.6860 -2.5728 106° East  Level FlightAware Approximate
06:29AM 51.6510 -2.3723 106° East  Level FlightAware Approximate
06:30AM 51.6309 -2.1683 105° East  Level FlightAware Approximate
06:31AM 51.5888 -1.9720 112° Southeast  Level FlightAware Approximate
06:32AM 51.5596 -1.7698 102° East  Level FlightAware Approximate
06:33AM 51.5324 -1.5667 102° East  Level FlightAware Approximate
06:34AM 51.5044 -1.3641 103° East  Level FlightAware Approximate
06:35AM 51.4765 -1.1615 101° East  Level FlightAware Approximate
06:36AM 51.4510 -0.9582 101° East  Level FlightAware Approximate
06:37AM 51.4211 -0.7566 103° East  Level FlightAware Approximate
06:38AM 51.3948 -0.5540 98° East  Level FlightAware Approximate
06:39AM 51.3675 -0.3531 112° Southeast  Level FlightAware Approximate
06:40AM 51.3426 -0.1570 101° East  Level FlightAware Approximate
06:41AM 51.3167 0.0167 105° East  Level FlightAware Approximate
06:42AM 51.3308 0.0325 105° East  Level Estimated
06:43AM 51.3308 0.0325 105° East  Level Estimated
06:44AM 51.3308 0.0325 105° East  Level Estimated
06:45AM 51.3308 0.0325 105° East  Level Estimated
06:46AM 51.3308 0.0325 105° East  Level Estimated
06:47AM 51.3308 0.0325 105° East  Level Estimated
06:48AM 51.3308 0.0325 105° East  Level Estimated
06:49AM 51.3308 0.0325 105° East  Level Estimated
06:50AM 51.3308 0.0325 105° East  Level Estimated
06:51AM 51.3308 0.0325 105° East  Level Estimated
06:52AM 51.3308 0.0325 105° East  Level Estimated
06:53AM 51.3308 0.0325 105° East  Level Estimated
06:54AM 51.3308 0.0325 105° East  Level Estimated
06:55AM 51.3308 0.0325 105° East  Level Estimated
06:56AM 51.3308 0.0325 105° East  Level Estimated
06:57AM 51.3308 0.0325 105° East  Level Estimated
06:58AM 51.3308 0.0325 105° East  Level Estimated
06:59AM 51.3308 0.0325 105° East  Level Estimated
07:00AM 51.3308 0.0325 105° East  Level Estimated
07:01AM 51.3308 0.0325 105° East  Level Estimated
07:02AM 51.3308 0.0325 105° East  Level Estimated
07:03AM 51.3308 0.0325 105° East  Level Estimated
07:04AM 51.3308 0.0325 105° East  Level Estimated
07:05AM 51.3308 0.0325 105° East  Level Estimated
07:06AM 51.3308 0.0325 105° East  Level Estimated
07:07AM 51.3308 0.0325 105° East  Level Estimated
07:08AM 51.3308 0.0325 105° East  Level Estimated